Time;durP1;ratioP1;P1;durP2;ratioP2;P2;SDS_P1;SDS_P2;PMS_P1;PMS_P2;Temp;Humidity;BMP_temperature;BMP_pressure;BME280_temperature;BME280_humidity;BME280_pressure;Samples;Min_cycle;Max_cycle;Signal;HPM_P1;HPM_P2
2021/01/18 00:01:54;;;;;;;21.90;10.10;;;5.10;99.90;;;;;;4958719;28;20391;-83
2021/01/18 00:04:23;;;;;;;25.27;11.10;;;5.20;99.90;;;;;;4976807;28;20525;-83
2021/01/18 00:06:53;;;;;;;26.48;11.80;;;5.10;99.90;;;;;;4977004;28;20190;-83
2021/01/18 00:09:22;;;;;;;25.13;11.98;;;5.10;99.90;;;;;;4968960;28;20584;-83
2021/01/18 00:11:51;;;;;;;28.08;11.77;;;5.10;99.90;;;;;;4972638;28;20219;-83
2021/01/18 00:14:17;;;;;;;20.40;11.63;;;5.20;99.90;;;;;;4965399;28;20207;-83
2021/01/18 00:16:43;;;;;;;22.33;12.13;;;5.30;99.90;;;;;;4964696;28;20459;-83
2021/01/18 00:19:08;;;;;;;22.10;13.60;;;5.20;99.90;;;;;;4957243;28;20930;-82
2021/01/18 00:21:35;;;;;;;27.47;13.80;;;5.20;99.90;;;;;;4957849;28;20454;-83
2021/01/18 00:24:03;;;;;;;28.48;13.82;;;5.20;99.90;;;;;;4960872;28;20754;-83
2021/01/18 00:26:32;;;;;;;29.27;14.30;;;5.20;99.90;;;;;;4976802;28;20668;-83
2021/01/18 00:29:00;;;;;;;24.65;13.02;;;5.20;99.90;;;;;;4974127;28;20632;-83
2021/01/18 00:31:31;;;;;;;23.02;15.13;;;5.20;99.90;;;;;;4949658;28;20507;-83
2021/01/18 00:33:59;;;;;;;26.13;12.52;;;5.20;99.90;;;;;;4970289;28;20262;-83
2021/01/18 00:36:25;;;;;;;34.10;13.57;;;5.20;99.90;;;;;;4976894;28;20613;-83
2021/01/18 00:38:53;;;;;;;27.42;13.27;;;5.10;99.90;;;;;;4943737;28;20471;-84
2021/01/18 00:41:19;;;;;;;28.63;13.77;;;5.00;99.90;;;;;;4974541;28;20202;-83
2021/01/18 00:43:48;;;;;;;32.83;12.32;;;5.00;99.90;;;;;;4957683;29;20427;-84
2021/01/18 00:46:14;;;;;;;30.17;13.70;;;5.00;99.90;;;;;;4975126;28;20485;-83
2021/01/18 00:48:39;;;;;;;33.63;13.87;;;5.00;99.90;;;;;;4965812;28;20900;-83
2021/01/18 00:51:05;;;;;;;28.87;13.60;;;5.10;99.90;;;;;;4956411;29;20535;-83
2021/01/18 00:53:31;;;;;;;24.13;13.20;;;5.00;99.90;;;;;;4965147;28;20936;-83
2021/01/18 00:55:58;;;;;;;22.50;12.63;;;5.00;99.90;;;;;;4972652;28;20459;-83
2021/01/18 00:58:33;;;;;;;29.15;12.90;;;5.00;99.90;;;;;;4940606;29;20672;-83
2021/01/18 01:01:20;;;;;;;20.73;11.50;;;4.90;99.90;;;;;;4958948;28;20243;-83
2021/01/18 01:03:48;;;;;;;29.73;11.43;;;4.90;99.90;;;;;;4959569;28;20555;-83
2021/01/18 01:06:15;;;;;;;25.23;10.75;;;5.00;99.90;;;;;;4975770;28;20206;-84
2021/01/18 01:08:43;;;;;;;29.20;11.70;;;5.00;99.90;;;;;;4976357;28;20203;-83
2021/01/18 01:11:11;;;;;;;26.10;10.97;;;5.00;99.90;;;;;;4975523;28;20197;-83
2021/01/18 01:13:42;;;;;;;23.90;9.88;;;5.00;99.90;;;;;;4956155;29;20640;-83
2021/01/18 01:16:10;;;;;;;28.47;10.57;;;5.00;99.90;;;;;;4957024;28;20278;-83
2021/01/18 01:18:38;;;;;;;21.55;10.65;;;5.10;99.90;;;;;;4976348;28;20419;-83
2021/01/18 01:21:04;;;;;;;32.50;11.30;;;5.10;99.90;;;;;;4975072;28;20242;-83
2021/01/18 01:23:33;;;;;;;27.05;10.48;;;5.10;99.90;;;;;;4956652;28;20490;-83
2021/01/18 01:25:59;;;;;;;21.20;9.63;;;5.10;99.90;;;;;;4958801;28;20561;-83
2021/01/18 01:28:24;;;;;;;23.97;10.23;;;5.10;99.90;;;;;;4974386;28;20513;-83
2021/01/18 01:30:50;;;;;;;19.23;9.10;;;5.00;99.90;;;;;;4974975;28;20422;-83
2021/01/18 01:33:21;;;;;;;28.55;10.77;;;5.00;99.90;;;;;;4975658;28;20467;-83
2021/01/18 01:35:47;;;;;;;21.55;9.88;;;4.70;99.90;;;;;;4975062;28;20195;-83
2021/01/18 01:38:13;;;;;;;20.37;10.00;;;5.00;99.90;;;;;;4959615;28;20227;-84
2021/01/18 01:40:39;;;;;;;29.37;9.30;;;5.30;99.90;;;;;;4955746;29;20904;-83
2021/01/18 01:43:07;;;;;;;25.80;9.70;;;5.10;99.90;;;;;;4955766;28;20919;-83
2021/01/18 01:45:33;;;;;;;21.40;9.45;;;5.10;99.90;;;;;;4956727;28;20275;-83
2021/01/18 01:48:01;;;;;;;17.05;9.82;;;5.10;99.90;;;;;;4969923;28;20198;-83
2021/01/18 01:50:32;;;;;;;20.10;8.85;;;5.10;99.90;;;;;;4975687;28;20193;-83
2021/01/18 01:53:04;;;;;;;15.90;8.35;;;5.20;99.90;;;;;;4928191;29;20608;-83
2021/01/18 01:55:32;;;;;;;20.33;8.70;;;5.20;99.90;;;;;;4955066;28;20191;-83
2021/01/18 01:58:02;;;;;;;17.50;8.45;;;5.10;99.90;;;;;;4956561;28;20204;-83
2021/01/18 02:00:39;;;;;;;14.45;8.05;;;5.20;99.90;;;;;;4955271;29;20183;-83
2021/01/18 02:03:37;;;;;;;22.60;9.63;;;4.80;99.90;;;;;;4955638;28;20225;-84
2021/01/18 02:06:04;;;;;;;20.02;7.80;;;4.90;99.90;;;;;;4956269;28;20195;-83
2021/01/18 02:08:33;;;;;;;17.23;8.43;;;5.10;99.90;;;;;;4974245;28;20203;-84
2021/01/18 02:11:01;;;;;;;16.25;8.10;;;4.80;99.90;;;;;;4958858;28;20512;-83
2021/01/18 02:14:15;;;;;;;17.13;8.82;;;5.00;99.90;;;;;;4940246;29;20215;-83
2021/01/18 02:16:59;;;;;;;19.80;8.38;;;5.00;99.90;;;;;;4958419;28;20540;-83
2021/01/18 02:20:22;;;;;;;16.73;7.28;;;5.00;99.90;;;;;;4975292;28;20180;-83
2021/01/18 02:23:12;;;;;;;16.58;7.85;;;5.00;99.90;;;;;;4963327;28;20187;-84
2021/01/18 02:25:43;;;;;;;15.35;8.15;;;5.00;99.90;;;;;;4964681;28;20199;-83
2021/01/18 02:28:31;;;;;;;14.23;7.82;;;5.00;99.90;;;;;;4973801;28;20191;-83
2021/01/18 02:31:18;;;;;;;25.15;9.50;;;5.00;99.90;;;;;;4956654;28;20621;-84
2021/01/18 02:34:02;;;;;;;26.92;9.13;;;5.00;99.90;;;;;;4958340;28;20207;-83
2021/01/18 02:36:38;;;;;;;24.58;9.68;;;4.90;99.90;;;;;;4955302;29;20187;-83
2021/01/18 02:39:32;;;;;;;27.42;10.15;;;4.90;99.90;;;;;;4936605;29;20309;-84
2021/01/18 02:42:07;;;;;;;24.20;9.93;;;4.90;99.90;;;;;;4939798;29;20180;-83
2021/01/18 02:44:36;;;;;;;26.65;11.00;;;5.00;99.90;;;;;;4955811;28;20181;-84
2021/01/18 02:47:06;;;;;;;22.67;11.70;;;5.00;99.90;;;;;;4940515;28;20214;-83
2021/01/18 02:49:33;;;;;;;20.02;10.82;;;4.90;99.90;;;;;;4955134;29;20220;-83
2021/01/18 02:52:03;;;;;;;19.67;11.60;;;4.90;99.90;;;;;;4956790;28;20215;-83
2021/01/18 02:54:29;;;;;;;22.77;11.70;;;4.90;99.90;;;;;;4970838;28;20250;-84
2021/01/18 02:56:57;;;;;;;21.97;13.57;;;4.90;99.90;;;;;;4962250;28;20187;-83
2021/01/18 02:59:25;;;;;;;26.70;14.18;;;4.90;99.90;;;;;;4963539;28;20443;-84
2021/01/18 03:02:26;;;;;;;26.33;13.75;;;4.90;99.90;;;;;;4965475;28;20191;-84
2021/01/18 03:05:22;;;;;;;25.88;13.63;;;4.90;99.90;;;;;;4977793;28;20238;-84
2021/01/18 03:08:08;;;;;;;25.70;14.00;;;4.90;99.90;;;;;;4978266;28;20187;-84
2021/01/18 03:10:40;;;;;;;31.10;14.40;;;4.90;99.90;;;;;;4977370;28;20651;-84
2021/01/18 03:13:37;;;;;;;29.02;15.13;;;4.90;99.90;;;;;;4976772;28;20215;-84
2021/01/18 03:16:18;;;;;;;24.38;15.05;;;4.90;99.90;;;;;;4977057;28;20186;-84
2021/01/18 03:18:47;;;;;;;26.65;14.57;;;4.80;99.90;;;;;;4977614;28;20255;-84
2021/01/18 03:21:13;;;;;;;27.25;15.27;;;4.80;99.90;;;;;;4966735;28;20288;-84
2021/01/18 03:23:43;;;;;;;39.05;16.88;;;4.80;99.90;;;;;;4959230;28;20207;-84
2021/01/18 03:26:09;;;;;;;30.50;15.55;;;4.90;99.90;;;;;;4968685;28;20225;-84
2021/01/18 03:28:36;;;;;;;29.23;15.73;;;4.50;99.90;;;;;;4972335;28;20208;-84
2021/01/18 03:31:05;;;;;;;33.05;15.32;;;5.00;99.90;;;;;;4967125;28;20578;-85
2021/01/18 03:33:33;;;;;;;29.52;16.25;;;4.90;99.90;;;;;;4963683;28;20314;-84
2021/01/18 03:36:01;;;;;;;28.10;15.50;;;4.90;99.90;;;;;;4959413;28;20195;-84
2021/01/18 03:38:30;;;;;;;24.38;14.80;;;4.80;99.90;;;;;;4958424;28;20232;-84
2021/01/18 03:40:56;;;;;;;27.73;16.15;;;4.90;99.90;;;;;;4962300;28;20186;-83
2021/01/18 03:43:34;;;;;;;26.25;14.45;;;4.90;99.90;;;;;;4943544;29;20164;-84
2021/01/18 03:46:07;;;;;;;32.05;16.20;;;4.90;99.90;;;;;;4954418;28;20294;-82
2021/01/18 03:48:34;;;;;;;34.10;15.15;;;4.90;99.90;;;;;;4938423;29;20259;-82
2021/01/18 03:51:02;;;;;;;30.83;14.87;;;4.80;99.90;;;;;;4951262;28;20274;-82
2021/01/18 03:53:30;;;;;;;31.20;15.13;;;4.80;99.90;;;;;;4976916;28;20993;-83
2021/01/18 03:55:58;;;;;;;25.08;15.23;;;4.80;99.90;;;;;;4965802;28;20175;-83
2021/01/18 03:58:26;;;;;;;27.02;15.10;;;4.40;99.90;;;;;;4977671;28;20210;-82
2021/01/18 04:00:54;;;;;;;20.77;13.03;;;4.90;99.90;;;;;;4944136;28;20183;-82
2021/01/18 04:03:26;;;;;;;34.35;17.35;;;4.90;99.90;;;;;;4947982;29;20439;-82
2021/01/18 04:05:59;;;;;;;27.90;14.38;;;4.80;99.90;;;;;;4962221;28;20285;-82
2021/01/18 04:08:25;;;;;;;22.27;13.25;;;4.90;99.90;;;;;;4975260;28;20207;-82
2021/01/18 04:10:54;;;;;;;21.58;12.38;;;4.80;99.90;;;;;;4972707;28;20192;-82
2021/01/18 04:13:23;;;;;;;26.83;13.13;;;4.80;99.90;;;;;;4941837;28;20215;-82
2021/01/18 04:15:51;;;;;;;27.47;14.60;;;4.90;99.90;;;;;;4973124;28;20302;-82
2021/01/18 04:18:24;;;;;;;22.20;12.70;;;4.80;99.90;;;;;;4957934;28;21065;-82
2021/01/18 04:20:55;;;;;;;24.58;12.90;;;5.10;99.90;;;;;;4974922;28;20270;-82
2021/01/18 04:23:30;;;;;;;23.25;12.65;;;4.80;99.90;;;;;;4956044;28;20567;-82
2021/01/18 04:25:58;;;;;;;24.92;13.40;;;4.70;99.90;;;;;;4957038;29;20193;-82
2021/01/18 04:28:24;;;;;;;27.70;12.70;;;4.70;99.90;;;;;;4957988;28;20692;-81
2021/01/18 04:30:54;;;;;;;31.15;13.18;;;4.80;99.90;;;;;;4937623;29;20475;-83
2021/01/18 04:33:25;;;;;;;21.83;12.45;;;4.80;99.90;;;;;;4953195;28;20211;-82
2021/01/18 04:35:56;;;;;;;21.63;11.05;;;4.80;99.90;;;;;;4972977;28;20278;-82
2021/01/18 04:38:23;;;;;;;21.42;13.52;;;4.80;99.90;;;;;;4975864;28;20238;-82
2021/01/18 04:40:56;;;;;;;21.48;12.35;;;4.80;99.90;;;;;;4957882;28;20625;-81
2021/01/18 04:43:22;;;;;;;23.10;13.48;;;4.80;99.90;;;;;;4957528;28;20588;-82
2021/01/18 04:45:55;;;;;;;22.70;11.55;;;4.80;99.90;;;;;;4975482;28;20187;-83
2021/01/18 04:48:25;;;;;;;21.70;11.35;;;4.80;99.90;;;;;;4975882;28;20191;-82
2021/01/18 04:50:56;;;;;;;20.92;12.20;;;4.70;99.90;;;;;;4976087;28;20179;-82
2021/01/18 04:53:25;;;;;;;22.88;11.70;;;4.70;99.90;;;;;;4976489;28;20207;-82
2021/01/18 04:56:15;;;;;;;26.27;11.55;;;4.70;99.90;;;;;;4972744;28;20203;-82
2021/01/18 04:58:48;;;;;;;30.27;12.45;;;4.70;99.90;;;;;;4956921;28;20200;-82
2021/01/18 05:01:17;;;;;;;19.25;13.00;;;4.70;99.90;;;;;;4976519;28;20179;-82
2021/01/18 05:03:46;;;;;;;23.60;13.18;;;4.80;99.90;;;;;;4973035;28;20651;-83
2021/01/18 05:06:12;;;;;;;21.65;11.75;;;4.60;99.90;;;;;;4975419;28;20199;-82
2021/01/18 05:09:08;;;;;;;26.38;11.95;;;4.70;99.90;;;;;;4958945;28;20576;-82
2021/01/18 05:11:37;;;;;;;20.08;11.75;;;4.70;99.90;;;;;;4965451;28;20199;-83
2021/01/18 05:14:10;;;;;;;25.17;12.00;;;4.70;99.90;;;;;;4940583;29;20215;-82
2021/01/18 05:16:39;;;;;;;20.63;11.15;;;4.90;99.90;;;;;;4957186;28;20212;-82
2021/01/18 05:19:08;;;;;;;21.27;12.65;;;4.30;99.90;;;;;;4961555;28;20238;-83
2021/01/18 05:21:47;;;;;;;18.98;11.23;;;4.70;99.90;;;;;;4975537;28;20668;-82
2021/01/18 05:24:17;;;;;;;21.85;11.65;;;4.70;99.90;;;;;;4974643;28;20238;-82
2021/01/18 05:27:04;;;;;;;22.17;13.43;;;4.70;99.90;;;;;;4950942;29;20625;-82
2021/01/18 05:29:37;;;;;;;23.58;10.73;;;4.70;99.90;;;;;;4953125;28;20246;-82
2021/01/18 05:32:25;;;;;;;22.95;11.77;;;4.70;99.90;;;;;;4958210;28;20202;-82
2021/01/18 05:35:12;;;;;;;24.10;12.63;;;4.40;99.90;;;;;;4959211;28;20191;-82
2021/01/18 05:38:06;;;;;;;16.70;10.90;;;4.80;99.90;;;;;;4956907;28;20198;-82
2021/01/18 05:40:45;;;;;;;24.67;12.02;;;4.80;99.90;;;;;;4956019;28;20175;-82
2021/01/18 05:43:14;;;;;;;19.98;10.30;;;4.70;99.90;;;;;;4939849;29;20230;-82
2021/01/18 05:45:47;;;;;;;17.25;10.85;;;4.60;99.90;;;;;;4956852;28;20188;-82
2021/01/18 05:48:28;;;;;;;21.40;11.75;;;4.60;99.90;;;;;;4974873;28;20261;-82
2021/01/18 05:51:00;;;;;;;22.60;12.25;;;4.60;99.90;;;;;;4972871;28;20214;-82
2021/01/18 05:53:32;;;;;;;31.27;12.23;;;4.70;99.90;;;;;;4920656;29;20196;-82
2021/01/18 05:56:22;;;;;;;23.52;11.20;;;4.60;99.90;;;;;;4947894;28;20201;-83
2021/01/18 05:58:55;;;;;;;18.63;11.45;;;4.50;99.90;;;;;;4974425;28;20198;-82
2021/01/18 06:01:39;;;;;;;18.42;10.60;;;4.50;99.90;;;;;;4944094;28;20192;-82
2021/01/18 06:04:16;;;;;;;32.42;12.77;;;4.50;99.90;;;;;;4973920;28;20724;-82
2021/01/18 06:07:01;;;;;;;27.85;13.02;;;4.50;99.90;;;;;;4975591;28;20218;-83
2021/01/18 06:09:45;;;;;;;26.23;12.38;;;4.50;99.90;;;;;;4965290;28;20180;-83
2021/01/18 06:12:29;;;;;;;23.02;11.93;;;4.50;99.90;;;;;;4955903;28;20230;-83
2021/01/18 06:15:11;;;;;;;21.38;12.30;;;4.50;99.90;;;;;;4966775;28;20187;-81
2021/01/18 06:17:40;;;;;;;25.00;11.68;;;4.60;99.90;;;;;;4974718;28;20179;-82
2021/01/18 06:20:17;;;;;;;24.38;12.35;;;4.60;99.90;;;;;;4945195;28;20275;-82
2021/01/18 06:22:56;;;;;;;23.50;12.77;;;4.70;99.90;;;;;;4955134;29;20211;-82
2021/01/18 06:25:31;;;;;;;20.50;11.60;;;4.60;99.90;;;;;;4958185;28;20189;-83
2021/01/18 06:28:00;;;;;;;26.83;12.73;;;4.60;99.90;;;;;;4974401;28;20183;-82
2021/01/18 06:30:30;;;;;;;23.98;11.95;;;4.50;99.90;;;;;;4959922;28;20198;-83
2021/01/18 06:33:14;;;;;;;21.88;12.43;;;4.60;99.90;;;;;;4964203;28;20211;-83
2021/01/18 06:35:40;;;;;;;24.35;12.77;;;4.60;99.90;;;;;;4979121;28;20273;-82
2021/01/18 06:38:11;;;;;;;28.70;13.80;;;4.50;99.90;;;;;;4978085;28;20313;-82
2021/01/18 06:40:41;;;;;;;23.95;13.30;;;4.50;99.90;;;;;;4960700;28;20458;-82
2021/01/18 06:43:10;;;;;;;31.60;14.80;;;4.70;99.90;;;;;;4942978;29;20679;-82
2021/01/18 06:45:40;;;;;;;25.65;13.88;;;4.70;99.90;;;;;;4958869;28;20184;-82
2021/01/18 06:48:09;;;;;;;35.00;16.08;;;4.80;99.90;;;;;;4942999;28;20203;-82
2021/01/18 06:50:41;;;;;;;27.08;14.82;;;4.80;99.90;;;;;;4975418;28;20198;-82
2021/01/18 06:53:18;;;;;;;23.50;14.50;;;4.70;99.90;;;;;;4965862;28;20212;-82
2021/01/18 06:56:15;;;;;;;31.63;14.82;;;4.70;99.90;;;;;;4969929;28;20195;-82
2021/01/18 06:59:08;;;;;;;30.55;14.20;;;4.60;99.90;;;;;;4952883;28;20274;-83
2021/01/18 07:01:39;;;;;;;38.58;16.85;;;4.70;99.90;;;;;;4978667;28;20193;-83
2021/01/18 07:04:12;;;;;;;33.10;15.82;;;4.70;99.90;;;;;;4955407;29;20200;-82
2021/01/18 07:06:41;;;;;;;32.45;15.40;;;4.70;99.90;;;;;;4961246;28;20553;-84
2021/01/18 07:09:10;;;;;;;27.92;15.18;;;4.70;99.90;;;;;;4974546;28;20191;-84
2021/01/18 07:11:36;;;;;;;34.75;16.67;;;4.90;99.90;;;;;;4927883;28;20573;-84
2021/01/18 07:14:09;;;;;;;41.42;17.45;;;4.80;99.90;;;;;;4978452;28;20187;-85
2021/01/18 07:16:39;;;;;;;31.75;15.75;;;4.70;99.90;;;;;;4975763;28;20175;-81
2021/01/18 07:19:09;;;;;;;33.70;15.73;;;4.70;99.90;;;;;;4973821;28;20180;-83
2021/01/18 07:21:48;;;;;;;32.55;17.60;;;4.40;99.90;;;;;;4942257;28;20684;-84
2021/01/18 07:24:25;;;;;;;28.73;15.00;;;4.90;99.90;;;;;;4977431;28;20188;-84
2021/01/18 07:27:04;;;;;;;31.27;15.85;;;4.80;99.90;;;;;;4960735;28;20205;-83
2021/01/18 07:29:37;;;;;;;28.90;14.52;;;5.20;99.90;;;;;;4961173;28;20270;-85
2021/01/18 07:32:08;;;;;;;33.05;14.60;;;4.60;99.90;;;;;;4976238;28;20653;-83
2021/01/18 07:34:41;;;;;;;32.90;14.95;;;5.00;99.90;;;;;;4978469;28;20210;-85
2021/01/18 07:37:08;;;;;;;29.02;14.50;;;4.90;99.90;;;;;;4961146;28;20188;-83
2021/01/18 07:39:39;;;;;;;25.38;14.45;;;4.90;99.90;;;;;;4976959;28;20219;-81
2021/01/18 07:42:29;;;;;;;27.98;13.50;;;4.80;99.90;;;;;;4959234;28;20206;-83
2021/01/18 07:45:11;;;;;;;26.38;13.50;;;4.90;99.90;;;;;;4956592;28;20192;-81
2021/01/18 07:48:00;;;;;;;32.65;13.73;;;4.70;99.90;;;;;;4942326;29;20195;-81
2021/01/18 07:50:27;;;;;;;35.65;13.80;;;4.70;99.90;;;;;;4958526;28;20199;-86
2021/01/18 07:53:04;;;;;;;29.52;12.70;;;4.70;99.90;;;;;;4966048;28;20668;-83
2021/01/18 07:55:38;;;;;;;27.15;13.30;;;4.70;99.90;;;;;;4974602;28;20257;-83
2021/01/18 07:58:15;;;;;;;22.60;12.75;;;4.80;99.90;;;;;;4961142;28;20235;-80
2021/01/18 08:00:50;;;;;;;33.83;14.60;;;4.70;99.90;;;;;;4942836;28;20517;-81
2021/01/18 08:03:22;;;;;;;24.65;12.90;;;4.80;99.90;;;;;;4969058;28;20284;-80
2021/01/18 08:06:00;;;;;;;25.38;12.68;;;4.80;99.90;;;;;;4941154;28;20192;-80
2021/01/18 08:08:30;;;;;;;28.92;13.30;;;4.80;99.90;;;;;;4950923;28;20210;-81
2021/01/18 08:11:12;;;;;;;26.63;13.15;;;4.80;99.90;;;;;;4944601;28;20350;-80
2021/01/18 08:13:59;;;;;;;27.30;13.15;;;4.80;99.90;;;;;;4943980;28;20235;-80
2021/01/18 08:16:38;;;;;;;22.05;13.30;;;4.80;99.90;;;;;;4941747;28;20215;-79
2021/01/18 08:19:26;;;;;;;26.35;12.30;;;4.80;99.90;;;;;;4957459;28;20234;-80
2021/01/18 08:22:04;;;;;;;23.05;11.63;;;4.90;99.90;;;;;;4956965;28;20188;-80
2021/01/18 08:24:34;;;;;;;26.20;13.80;;;4.90;99.90;;;;;;4959313;28;20212;-81
2021/01/18 08:27:12;;;;;;;24.50;13.13;;;4.90;99.90;;;;;;4963258;28;20184;-80
2021/01/18 08:29:45;;;;;;;25.65;13.30;;;4.90;99.90;;;;;;4965549;28;20281;-80
2021/01/18 08:32:30;;;;;;;23.35;11.80;;;4.90;99.90;;;;;;4941126;28;20222;-81
2021/01/18 08:35:20;;;;;;;30.33;13.30;;;5.00;99.90;;;;;;4959329;28;20200;-81
2021/01/18 08:38:00;;;;;;;30.58;13.95;;;5.00;99.90;;;;;;4965492;28;20194;-80
2021/01/18 08:40:43;;;;;;;34.08;14.18;;;5.10;99.90;;;;;;4959320;28;20538;-80
2021/01/18 08:43:16;;;;;;;21.50;11.93;;;5.10;99.90;;;;;;4952018;28;20258;-81
2021/01/18 08:45:49;;;;;;;22.85;11.20;;;5.50;99.90;;;;;;4965794;28;20205;-80
2021/01/18 08:48:25;;;;;;;22.73;11.80;;;5.30;99.90;;;;;;4948482;29;20203;-81
2021/01/18 08:50:58;;;;;;;28.15;13.13;;;5.20;99.90;;;;;;4948221;28;20195;-81
2021/01/18 08:53:40;;;;;;;33.88;13.43;;;5.30;99.90;;;;;;4942777;28;20679;-81
2021/01/18 08:56:08;;;;;;;25.20;12.90;;;5.30;99.90;;;;;;4953581;28;20270;-81
2021/01/18 08:58:41;;;;;;;27.65;12.93;;;5.30;99.90;;;;;;4964367;28;20233;-81
2021/01/18 09:01:15;;;;;;;27.55;12.60;;;5.30;99.90;;;;;;4968164;28;20268;-81
2021/01/18 09:03:45;;;;;;;30.30;12.63;;;5.30;99.90;;;;;;4967873;28;20695;-80
2021/01/18 09:06:13;;;;;;;24.23;12.73;;;5.30;99.90;;;;;;4956742;28;20199;-80
2021/01/18 09:08:46;;;;;;;29.00;12.48;;;5.30;99.90;;;;;;4964467;28;20207;-81
2021/01/18 09:11:12;;;;;;;29.23;14.30;;;5.40;99.90;;;;;;4964394;28;20249;-82
2021/01/18 09:13:44;;;;;;;28.63;14.50;;;5.30;99.90;;;;;;4952882;28;20687;-81
2021/01/18 09:16:18;;;;;;;32.63;14.70;;;5.30;99.90;;;;;;4951329;29;20200;-82
2021/01/18 09:18:49;;;;;;;30.27;14.85;;;5.30;99.90;;;;;;4956111;28;20508;-82
2021/01/18 09:21:18;;;;;;;30.73;14.02;;;5.40;99.90;;;;;;4956861;28;20533;-82
2021/01/18 09:23:46;;;;;;;28.08;14.23;;;5.40;99.90;;;;;;4965012;28;20235;-83
2021/01/18 09:26:18;;;;;;;25.75;13.00;;;5.50;99.90;;;;;;4955892;28;20560;-83
2021/01/18 09:28:54;;;;;;;34.47;14.93;;;5.50;99.90;;;;;;4949320;28;20187;-82
2021/01/18 09:31:24;;;;;;;31.92;14.30;;;5.50;99.90;;;;;;4966826;28;20203;-82
2021/01/18 09:33:53;;;;;;;29.75;13.52;;;5.50;99.90;;;;;;4960148;28;20207;-82
2021/01/18 09:36:24;;;;;;;29.70;13.55;;;5.60;99.90;;;;;;4967357;28;20210;-82
2021/01/18 09:38:52;;;;;;;26.17;14.20;;;5.60;99.90;;;;;;4964528;28;20276;-81
2021/01/18 09:41:24;;;;;;;34.85;15.48;;;5.60;99.90;;;;;;4959105;28;20207;-81
2021/01/18 09:43:52;;;;;;;24.10;12.95;;;5.70;99.90;;;;;;4966292;28;20188;-84
2021/01/18 09:46:22;;;;;;;33.38;14.02;;;5.70;99.90;;;;;;4945592;28;20574;-85
2021/01/18 09:48:51;;;;;;;35.00;15.50;;;5.70;99.90;;;;;;4959327;28;20255;-84
2021/01/18 09:51:20;;;;;;;32.15;16.58;;;5.60;99.90;;;;;;4963509;28;20218;-86
2021/01/18 09:53:57;;;;;;;30.15;14.32;;;5.60;99.90;;;;;;4966919;28;20211;-87
2021/01/18 09:56:26;;;;;;;25.73;14.00;;;5.70;99.90;;;;;;4965856;28;20194;-86
2021/01/18 09:58:57;;;;;;;27.95;16.08;;;5.70;99.90;;;;;;4962962;28;20195;-87
2021/01/18 10:01:26;;;;;;;30.58;14.98;;;5.70;99.90;;;;;;4966644;28;20187;-85
2021/01/18 10:03:57;;;;;;;25.15;11.85;;;5.60;99.90;;;;;;4955836;28;20219;-84
2021/01/18 10:06:28;;;;;;;26.58;13.65;;;5.50;99.90;;;;;;4945615;28;20196;-82
2021/01/18 10:09:11;;;;;;;22.85;12.25;;;5.60;99.90;;;;;;4971069;28;20199;-82
2021/01/18 10:11:43;;;;;;;23.45;11.27;;;5.70;99.90;;;;;;4939393;29;20204;-81
2021/01/18 10:14:25;;;;;;;30.38;12.48;;;5.70;99.90;;;;;;4966728;28;20249;-82
2021/01/18 10:17:05;;;;;;;22.02;10.90;;;5.60;99.90;;;;;;4955866;28;20192;-81
2021/01/18 10:19:36;;;;;;;21.70;10.05;;;5.60;99.90;;;;;;4959081;28;20191;-83
2021/01/18 10:22:16;;;;;;;22.80;10.68;;;5.60;99.90;;;;;;4971021;28;20224;-83
2021/01/18 10:24:58;;;;;;;24.40;11.65;;;5.60;99.90;;;;;;4972860;28;20190;-82
2021/01/18 10:27:31;;;;;;;29.23;11.23;;;5.60;99.90;;;;;;4965734;28;20511;-81
2021/01/18 10:30:20;;;;;;;26.52;10.10;;;5.60;99.90;;;;;;4937022;28;20196;-79
2021/01/18 10:32:48;;;;;;;24.13;9.20;;;5.60;99.90;;;;;;4955460;28;20204;-79
2021/01/18 10:35:30;;;;;;;21.90;10.10;;;5.60;99.90;;;;;;4962904;28;20206;-83
2021/01/18 10:38:22;;;;;;;22.45;9.63;;;5.70;99.90;;;;;;4959595;28;20678;-83
2021/01/18 10:41:04;;;;;;;20.98;9.15;;;5.70;99.90;;;;;;4955418;28;20242;-78
2021/01/18 10:43:32;;;;;;;30.73;9.65;;;5.80;99.90;;;;;;4974311;28;20194;-80
2021/01/18 10:46:14;;;;;;;25.52;10.05;;;5.80;99.90;;;;;;4968256;28;20207;-83
2021/01/18 10:48:57;;;;;;;25.85;10.48;;;5.90;99.90;;;;;;4963465;28;20277;-79
2021/01/18 10:51:28;;;;;;;18.33;8.18;;;5.90;99.90;;;;;;4958996;28;20219;-81
2021/01/18 10:53:58;;;;;;;28.02;9.90;;;5.90;99.90;;;;;;4959048;28;20216;-80
2021/01/18 10:56:36;;;;;;;19.83;7.88;;;6.00;99.90;;;;;;4942878;28;20575;-79
2021/01/18 10:59:02;;;;;;;15.75;7.65;;;6.10;99.90;;;;;;4961877;28;20198;-82
2021/01/18 11:01:32;;;;;;;14.68;7.28;;;6.10;99.90;;;;;;4965729;28;20188;-83
2021/01/18 11:04:11;;;;;;;14.00;7.32;;;6.10;99.90;;;;;;4957024;28;20880;-81
2021/01/18 11:06:47;;;;;;;19.27;7.05;;;6.20;99.90;;;;;;4964714;28;20230;-81
2021/01/18 11:09:32;;;;;;;14.23;6.30;;;6.30;99.90;;;;;;4947950;28;20260;-81
2021/01/18 11:12:03;;;;;;;21.25;7.60;;;6.30;99.90;;;;;;4963747;28;20202;-80
2021/01/18 11:14:32;;;;;;;18.05;6.93;;;6.40;99.90;;;;;;4950806;28;20757;-80
2021/01/18 11:17:04;;;;;;;13.27;6.13;;;6.50;99.90;;;;;;4961957;28;20292;-80
2021/01/18 11:19:32;;;;;;;16.42;6.82;;;6.60;99.90;;;;;;4967344;28;20282;-80
2021/01/18 11:22:00;;;;;;;12.85;5.65;;;6.70;99.90;;;;;;4946293;28;20204;-80
2021/01/18 11:24:33;;;;;;;13.15;6.68;;;6.70;99.90;;;;;;4946123;28;20191;-81
2021/01/18 11:26:59;;;;;;;14.75;6.78;;;6.70;99.90;;;;;;4948625;29;20706;-81
2021/01/18 11:29:31;;;;;;;11.38;5.90;;;6.70;99.90;;;;;;4951878;28;20275;-80
2021/01/18 11:31:57;;;;;;;12.77;6.43;;;6.70;99.90;;;;;;4963258;28;20202;-84
2021/01/18 11:34:28;;;;;;;18.02;6.97;;;6.60;99.90;;;;;;4940459;28;20189;-83
2021/01/18 11:37:03;;;;;;;18.23;5.15;;;6.50;99.90;;;;;;4964560;28;20187;-83
2021/01/18 11:39:31;;;;;;;12.38;5.05;;;6.70;99.90;;;;;;4967593;28;20254;-80
2021/01/18 11:42:06;;;;;;;16.63;7.25;;;6.70;99.90;;;;;;4960325;28;20222;-80
2021/01/18 11:44:37;;;;;;;16.38;6.95;;;6.80;99.90;;;;;;4962219;28;20191;-81
2021/01/18 11:47:05;;;;;;;13.30;5.50;;;6.80;99.90;;;;;;4957957;28;20188;-83
2021/01/18 11:49:35;;;;;;;18.13;6.00;;;6.80;99.90;;;;;;4956777;28;20184;-82
2021/01/18 11:52:03;;;;;;;14.30;5.03;;;6.80;99.90;;;;;;4964644;28;20509;-81
2021/01/18 11:54:31;;;;;;;13.40;5.40;;;6.90;99.90;;;;;;4955455;28;20205;-81
2021/01/18 11:57:06;;;;;;;11.40;5.50;;;6.90;99.90;;;;;;4965427;28;20202;-82
2021/01/18 11:59:32;;;;;;;16.75;6.18;;;6.90;99.90;;;;;;4954191;28;20183;-84
2021/01/18 12:02:01;;;;;;;10.75;5.20;;;6.90;99.90;;;;;;4973500;28;20200;-83
2021/01/18 12:04:29;;;;;;;9.88;4.50;;;7.00;99.90;;;;;;4961684;28;20212;-82
2021/01/18 12:07:00;;;;;;;10.73;5.47;;;7.10;99.90;;;;;;4961444;28;20206;-83
2021/01/18 12:09:28;;;;;;;12.48;5.72;;;7.10;99.90;;;;;;4966681;28;20210;-82
2021/01/18 12:11:59;;;;;;;13.75;4.72;;;7.00;99.90;;;;;;4951719;28;20536;-83
2021/01/18 12:14:30;;;;;;;12.73;4.95;;;7.00;99.90;;;;;;4946518;29;20286;-83
2021/01/18 12:17:05;;;;;;;11.50;5.10;;;7.00;99.90;;;;;;4957843;28;20279;-80
2021/01/18 12:19:33;;;;;;;13.93;5.82;;;6.90;99.90;;;;;;4966811;28;20592;-80
2021/01/18 12:22:00;;;;;;;10.20;4.93;;;7.00;99.90;;;;;;4957515;28;20275;-81
2021/01/18 12:24:27;;;;;;;15.55;5.18;;;7.00;99.90;;;;;;4963248;28;20208;-81
2021/01/18 12:26:55;;;;;;;15.45;5.65;;;7.00;99.90;;;;;;4970321;28;20229;-82
2021/01/18 12:29:26;;;;;;;12.07;4.50;;;7.00;99.90;;;;;;4959708;28;20215;-81
2021/01/18 12:31:52;;;;;;;15.77;5.05;;;7.00;99.90;;;;;;4959213;28;20191;-81
2021/01/18 12:34:18;;;;;;;7.75;4.60;;;7.00;99.90;;;;;;4962110;28;20199;-79
2021/01/18 12:36:56;;;;;;;13.77;5.60;;;6.90;99.90;;;;;;4954464;28;20247;-80
2021/01/18 12:39:25;;;;;;;15.52;6.53;;;6.90;99.90;;;;;;4958527;28;20670;-81
2021/01/18 12:41:54;;;;;;;14.60;4.57;;;6.90;99.90;;;;;;4966098;28;20687;-82
2021/01/18 12:44:20;;;;;;;9.95;4.40;;;6.90;99.90;;;;;;4941757;28;20211;-80
2021/01/18 12:46:56;;;;;;;11.93;4.70;;;6.90;99.90;;;;;;4957794;28;20192;-80
2021/01/18 12:49:26;;;;;;;8.30;4.68;;;6.90;99.90;;;;;;4962514;28;20636;-79
2021/01/18 12:51:52;;;;;;;7.28;4.22;;;7.00;99.90;;;;;;4956721;28;20640;-81
2021/01/18 12:54:19;;;;;;;9.50;4.38;;;7.00;99.90;;;;;;4959526;28;20196;-81
2021/01/18 12:56:51;;;;;;;9.30;4.90;;;6.90;99.90;;;;;;4923105;29;20766;-81
2021/01/18 12:59:36;;;;;;;14.20;5.00;;;7.00;99.90;;;;;;4964290;28;20736;-82
2021/01/18 13:02:07;;;;;;;10.70;4.82;;;6.90;99.90;;;;;;4937409;28;20629;-82
2021/01/18 13:04:33;;;;;;;10.20;5.25;;;6.90;99.90;;;;;;4937507;29;20274;-81
2021/01/18 13:07:03;;;;;;;9.88;4.30;;;6.90;99.90;;;;;;4968982;28;20222;-82
2021/01/18 13:09:32;;;;;;;11.95;4.38;;;7.00;99.90;;;;;;4954503;28;20191;-82
2021/01/18 13:12:00;;;;;;;7.60;4.82;;;7.00;99.90;;;;;;4962274;28;20524;-82